Time;durP1;ratioP1;P1;durP2;ratioP2;P2;SDS_P1;SDS_P2;PMS_P1;PMS_P2;Temp;Humidity;BMP_temperature;BMP_pressure;BME280_temperature;BME280_humidity;BME280_pressure;Samples;Min_cycle;Max_cycle;Signal;HPM_P1;HPM_P2
2024/02/12 00:01:45;;;;;;;5.32;2.42;;;;;;;8.37;98.98;98799.25;6198654;23;20016;-89
2024/02/12 00:04:24;;;;;;;5.47;2.63;;;;;;;8.35;98.78;98804.22;6156457;23;20342;-89
2024/02/12 00:06:50;;;;;;;2.58;2.15;;;;;;;8.34;99.47;98800.03;6206487;23;20043;-89
2024/02/12 00:09:36;;;;;;;2.75;1.85;;;;;;;8.44;98.63;98801.91;6209748;23;20038;-89
2024/02/12 00:12:02;;;;;;;4.40;2.55;;;;;;;8.29;99.29;98800.41;6193054;23;20701;-90
2024/02/12 00:14:33;;;;;;;5.50;2.20;;;;;;;8.26;100.00;98795.81;6162529;23;20012;-90
2024/02/12 00:17:05;;;;;;;4.97;2.38;;;;;;;8.36;99.98;98800.41;6137261;23;20039;-88
2024/02/12 00:19:37;;;;;;;3.75;1.80;;;;;;;8.33;99.40;98798.47;6166400;23;20027;-89
2024/02/12 00:22:04;;;;;;;4.85;2.22;;;;;;;8.31;99.80;98790.06;6204836;23;20083;-89
2024/02/12 00:24:38;;;;;;;3.67;1.83;;;;;;;8.37;99.39;98795.78;6175628;23;20384;-89
2024/02/12 00:27:07;;;;;;;6.20;2.55;;;;;;;8.36;99.25;98794.28;6174785;23;20234;-90
2024/02/12 00:29:40;;;;;;;2.97;2.20;;;;;;;8.28;99.70;98792.75;6176067;23;20017;-89
2024/02/12 00:32:10;;;;;;;4.35;2.22;;;;;;;8.24;100.00;98790.03;6177605;23;20036;-89
2024/02/12 00:34:37;;;;;;;4.78;1.73;;;;;;;8.30;100.00;98801.19;6179273;23;20066;-89
2024/02/12 00:37:05;;;;;;;3.38;2.30;;;;;;;8.28;100.00;98800.78;6154031;23;20009;-89
2024/02/12 00:39:33;;;;;;;2.53;1.92;;;;;;;8.25;100.00;98801.53;6151384;23;20420;-89
2024/02/12 00:42:34;;;;;;;2.70;1.70;;;;;;;8.23;100.00;98801.91;6149658;23;20024;-89
2024/02/12 00:45:03;;;;;;;3.88;2.40;;;;;;;8.23;100.00;98801.91;6177489;23;20025;-89
2024/02/12 00:47:32;;;;;;;4.95;2.30;;;;;;;8.25;100.00;98796.19;6152840;23;20009;-89
2024/02/12 00:49:59;;;;;;;4.18;2.10;;;;;;;8.23;100.00;98798.47;6178066;23;20025;-89
2024/02/12 00:52:28;;;;;;;20.33;2.13;;;;;;;8.23;100.00;98791.94;6176968;23;20009;-89
2024/02/12 00:54:56;;;;;;;3.67;2.35;;;;;;;8.22;100.00;98792.34;6180026;23;20145;-89
2024/02/12 00:57:23;;;;;;;4.32;2.63;;;;;;;8.25;100.00;98794.28;6178332;23;20020;-89
2024/02/12 00:59:49;;;;;;;4.28;1.95;;;;;;;8.23;100.00;98800.00;6177837;23;20013;-89
2024/02/12 01:02:15;;;;;;;5.20;2.67;;;;;;;8.19;100.00;98799.22;6169732;23;20012;-89
2024/02/12 01:04:40;;;;;;;5.88;2.10;;;;;;;8.21;100.00;98802.28;6170662;23;20131;-89
2024/02/12 01:07:06;;;;;;;3.65;2.05;;;;;;;8.19;100.00;98803.81;6179807;23;20074;-89
2024/02/12 01:09:32;;;;;;;7.80;2.30;;;;;;;8.17;100.00;98803.44;6178072;23;20519;-89
2024/02/12 01:12:03;;;;;;;3.35;2.47;;;;;;;8.12;100.00;98806.50;6177957;23;20398;-89
2024/02/12 01:14:29;;;;;;;6.78;2.42;;;;;;;8.15;100.00;98811.09;6175442;23;20391;-89
2024/02/12 01:16:57;;;;;;;4.75;2.60;;;;;;;8.16;100.00;98818.78;6174978;23;20012;-90
2024/02/12 01:19:37;;;;;;;5.80;2.55;;;;;;;8.21;100.00;98820.28;6149154;23;20335;-89
2024/02/12 01:22:08;;;;;;;5.60;2.45;;;;;;;8.21;100.00;98817.59;6150993;23;20104;-88
2024/02/12 01:24:47;;;;;;;4.35;2.75;;;;;;;8.20;100.00;98814.19;6170998;23;20016;-90
2024/02/12 01:27:13;;;;;;;4.18;2.90;;;;;;;8.22;100.00;98827.19;6158403;23;20021;-90
2024/02/12 01:29:43;;;;;;;4.60;1.92;;;;;;;8.23;100.00;98822.59;6180627;23;19997;-90
2024/02/12 01:32:15;;;;;;;7.95;2.65;;;;;;;8.29;100.00;98827.22;6180776;23;20013;-89
2024/02/12 01:34:44;;;;;;;3.95;1.83;;;;;;;8.31;100.00;98824.91;6148271;23;20009;-89
2024/02/12 01:37:13;;;;;;;3.90;1.75;;;;;;;8.28;100.00;98828.38;6150126;23;20009;-90
2024/02/12 01:39:41;;;;;;;4.75;2.03;;;;;;;8.25;100.00;98828.34;6176306;23;20052;-89
2024/02/12 01:42:25;;;;;;;6.45;2.45;;;;;;;8.25;100.00;98837.16;6151546;23;20352;-90
2024/02/12 01:45:26;;;;;;;3.05;2.10;;;;;;;8.27;100.00;98832.19;6152868;23;20013;-89
2024/02/12 01:48:02;;;;;;;3.08;1.92;;;;;;;8.24;100.00;98835.63;6148203;23;20020;-89
2024/02/12 01:50:38;;;;;;;5.68;2.70;;;;;;;8.29;100.00;98829.91;6183016;23;20042;-90
2024/02/12 01:53:11;;;;;;;4.15;1.90;;;;;;;8.25;100.00;98831.03;6132711;23;20455;-89
2024/02/12 01:55:41;;;;;;;6.13;2.40;;;;;;;8.15;100.00;98829.88;6104667;23;20083;-89
2024/02/12 01:58:11;;;;;;;4.22;3.17;;;;;;;8.22;100.00;98832.56;6143100;23;20088;-89
2024/02/12 02:00:50;;;;;;;3.53;2.03;;;;;;;8.27;100.00;98826.84;6151056;23;20016;-89
2024/02/12 02:03:17;;;;;;;4.22;2.45;;;;;;;8.30;100.00;98836.81;6151021;23;20009;-89
2024/02/12 02:05:48;;;;;;;6.00;2.53;;;;;;;8.30;100.00;98834.13;6153566;23;20067;-89
2024/02/12 02:08:16;;;;;;;10.73;2.88;;;;;;;8.34;100.00;98840.25;6179502;23;20557;-89
2024/02/12 02:11:03;;;;;;;8.18;2.95;;;;;;;8.41;100.00;98840.25;6157300;23;20005;-89
2024/02/12 02:13:42;;;;;;;5.82;2.83;;;;;;;8.43;100.00;98845.22;6141507;23;20028;-89
2024/02/12 02:16:19;;;;;;;6.75;2.45;;;;;;;8.36;100.00;98843.31;6158043;23;20106;-90
2024/02/12 02:18:55;;;;;;;4.35;2.35;;;;;;;8.33;100.00;98849.44;6133591;23;20510;-89
2024/02/12 02:21:46;;;;;;;6.72;2.85;;;;;;;8.31;100.00;98857.09;6162033;23;20028;-89
2024/02/12 02:24:20;;;;;;;;;;;;;;;8.34;100.00;98845.63;6178257;23;20144;-89
2024/02/12 02:26:49;;;;;;;4.53;1.98;;;;;;;8.35;100.00;98855.19;6188101;23;19912;-89
2024/02/12 02:29:18;;;;;;;5.22;2.53;;;;;;;8.39;100.00;98847.13;6154187;23;20001;-89
2024/02/12 02:31:55;;;;;;;5.45;2.30;;;;;;;8.37;100.00;98846.75;6151671;23;20087;-89
2024/02/12 02:34:23;;;;;;;6.43;2.65;;;;;;;8.34;100.00;98847.53;6153138;23;20016;-89
2024/02/12 02:36:49;;;;;;;9.68;3.40;;;;;;;8.37;100.00;98847.53;6177007;23;20060;-89
2024/02/12 02:39:15;;;;;;;8.60;3.00;;;;;;;8.40;100.00;98846.00;6157959;23;20817;-89
2024/02/12 02:41:52;;;;;;;6.63;2.95;;;;;;;8.46;100.00;98847.88;6133728;23;20017;-89
2024/02/12 02:44:18;;;;;;;7.00;2.67;;;;;;;8.47;100.00;98857.47;6159150;23;20028;-89
2024/02/12 02:46:46;;;;;;;9.77;2.60;;;;;;;8.47;100.00;98854.03;6141046;23;20028;-89
2024/02/12 02:49:14;;;;;;;5.68;2.83;;;;;;;8.49;100.00;98855.19;6180564;23;20009;-89
2024/02/12 02:51:51;;;;;;;5.43;2.75;;;;;;;8.49;100.00;98855.19;6148376;23;20040;-89
2024/02/12 02:54:21;;;;;;;6.55;2.47;;;;;;;8.46;100.00;98863.97;6175947;23;20028;-90
2024/02/12 02:56:52;;;;;;;8.25;3.55;;;;;;;8.50;100.00;98861.28;6178348;23;20001;-89
2024/02/12 02:59:23;;;;;;;8.75;3.20;;;;;;;8.54;100.00;98862.06;6130602;23;20008;-89
2024/02/12 03:01:55;;;;;;;6.88;3.25;;;;;;;8.54;100.00;98865.50;6152099;23;20017;-88
2024/02/12 03:04:30;;;;;;;7.95;3.05;;;;;;;8.51;100.00;98863.59;6188380;23;20032;-89
2024/02/12 03:06:59;;;;;;;15.20;3.15;;;;;;;8.40;100.00;98870.88;6177750;23;20040;-88
2024/02/12 03:09:25;;;;;;;7.88;3.15;;;;;;;8.49;100.00;98870.50;6139889;23;20020;-89
2024/02/12 03:11:52;;;;;;;8.63;3.17;;;;;;;8.46;100.00;98872.03;6157849;23;20005;-89
2024/02/12 03:14:18;;;;;;;4.30;2.40;;;;;;;8.59;100.00;98873.19;6160640;23;20012;-89
2024/02/12 03:16:46;;;;;;;5.25;2.53;;;;;;;8.59;100.00;98873.19;6132685;23;20027;-88
2024/02/12 03:19:23;;;;;;;5.40;2.75;;;;;;;8.62;100.00;98875.09;6148452;23;20009;-88
